createdAt,value
2023-02-27T00:01:24.595Z,103128.41
2023-02-27T00:03:51.331Z,103128.47
2023-02-27T00:06:20.326Z,103131.81
2023-02-27T00:08:48.296Z,103131.97
2023-02-27T00:11:17.059Z,103136.28
2023-02-27T00:13:46.905Z,103139.78
2023-02-27T00:16:14.025Z,103135.59
2023-02-27T00:18:40.653Z,103139.78
2023-02-27T00:21:12.859Z,103136.56
2023-02-27T00:23:40.376Z,103135.81
2023-02-27T00:26:06.855Z,103128.41
2023-02-27T00:28:33.415Z,103137.00
2023-02-27T00:30:59.960Z,103133.00
2023-02-27T00:33:26.456Z,103131.41
2023-02-27T00:36:03.647Z,103135.72
2023-02-27T00:38:32.536Z,103121.59
2023-02-27T00:40:59.344Z,103121.84
2023-02-27T00:43:30.331Z,103126.22
2023-02-27T00:45:56.862Z,103131.25
2023-02-27T00:48:27.638Z,103119.56
2023-02-27T00:50:56.475Z,103130.50
2023-02-27T00:53:26.072Z,103118.03
2023-02-27T00:55:59.744Z,103124.00
2023-02-27T00:58:26.172Z,103108.13
2023-02-27T01:00:52.713Z,103114.13
2023-02-27T01:03:19.421Z,103105.88
2023-02-27T01:05:46.165Z,103120.13
2023-02-27T01:08:14.929Z,103117.66
2023-02-27T01:10:43.732Z,103112.69
2023-02-27T01:13:11.274Z,103114.53
2023-02-27T01:15:40.612Z,103118.75
2023-02-27T01:18:07.074Z,103117.00
2023-02-27T01:20:33.947Z,103117.06
2023-02-27T01:23:00.487Z,103120.53
2023-02-27T01:25:27.023Z,103116.44
2023-02-27T01:27:53.492Z,103124.00
2023-02-27T01:30:20.035Z,103122.34
2023-02-27T01:32:46.638Z,103129.03
2023-02-27T01:35:13.221Z,103119.84
2023-02-27T01:37:39.811Z,103119.03
2023-02-27T01:40:08.355Z,103118.22
2023-02-27T01:42:34.766Z,103110.66
2023-02-27T01:45:33.642Z,103112.47
2023-02-27T01:48:37.240Z,103110.09
2023-02-27T01:51:22.212Z,103118.53
2023-02-27T01:53:52.286Z,103110.97
2023-02-27T01:56:26.214Z,103111.72
2023-02-27T01:58:57.683Z,103104.16
2023-02-27T02:01:24.953Z,103106.69
2023-02-27T02:04:17.815Z,103110.84
2023-02-27T02:06:49.094Z,103104.94
2023-02-27T02:09:18.489Z,103108.31
2023-02-27T02:11:45.035Z,103101.63
2023-02-27T02:14:13.770Z,103116.00
2023-02-27T02:16:43.214Z,103105.88
2023-02-27T02:19:29.232Z,103105.81
2023-02-27T02:22:16.202Z,103108.28
2023-02-27T02:25:15.366Z,103115.75
2023-02-27T02:28:10.172Z,103116.56
2023-02-27T02:30:55.094Z,103114.00
2023-02-27T02:33:40.916Z,103120.75
2023-02-27T02:37:09.665Z,103112.97
2023-02-27T02:39:59.372Z,103116.19
2023-02-27T02:42:34.613Z,103121.91
2023-02-27T02:45:22.011Z,103119.38
2023-02-27T02:48:13.477Z,103120.19
2023-02-27T02:50:50.155Z,103118.50
2023-02-27T02:53:37.391Z,103118.63
2023-02-27T02:56:20.649Z,103116.19
2023-02-27T02:58:55.990Z,103121.41
2023-02-27T03:01:30.697Z,103115.63
2023-02-27T03:04:05.921Z,103111.53
2023-02-27T03:06:47.553Z,103116.69
2023-02-27T03:09:26.713Z,103125.09
2023-02-27T03:11:55.188Z,103124.28
2023-02-27T03:14:42.183Z,103121.03
2023-02-27T03:17:22.580Z,103124.47
2023-02-27T03:20:08.604Z,103114.56
2023-02-27T03:22:40.235Z,103118.88
2023-02-27T03:25:10.699Z,103117.19
2023-02-27T03:27:44.661Z,103117.22
2023-02-27T03:30:34.160Z,103119.00
2023-02-27T03:33:22.116Z,103119.88
2023-02-27T03:36:01.091Z,103117.38
2023-02-27T03:38:41.162Z,103110.59
2023-02-27T03:41:29.147Z,103110.63
2023-02-27T03:44:12.893Z,103108.91
2023-02-27T03:46:41.173Z,103105.56
2023-02-27T03:49:11.043Z,103110.59
2023-02-27T03:51:37.576Z,103113.97
2023-02-27T03:54:10.610Z,103115.78
2023-02-27T03:57:07.494Z,103110.00
2023-02-27T03:59:36.036Z,103110.91
2023-02-27T04:02:03.073Z,103113.47
2023-02-27T04:04:32.739Z,103119.50
2023-02-27T04:07:32.063Z,103125.34
2023-02-27T04:10:30.400Z,103131.34
2023-02-27T04:13:04.124Z,103128.22
2023-02-27T04:15:31.427Z,103127.50
2023-02-27T04:18:35.413Z,103135.03
2023-02-27T04:21:15.433Z,103134.25
2023-02-27T04:23:54.913Z,103138.44
2023-02-27T04:26:39.431Z,103135.09
2023-02-27T04:29:08.083Z,103136.75
2023-02-27T04:32:01.645Z,103146.63
2023-02-27T04:34:45.468Z,103151.69
2023-02-27T04:37:17.713Z,103149.09
2023-02-27T04:40:00.704Z,103156.59
2023-02-27T04:42:32.318Z,103147.34
2023-02-27T04:45:04.384Z,103159.13
2023-02-27T04:47:36.646Z,103151.56
2023-02-27T04:50:19.932Z,103161.88
2023-02-27T04:53:02.438Z,103164.63
2023-02-27T04:55:41.736Z,103162.97
2023-02-27T04:58:15.535Z,103163.00
2023-02-27T05:00:48.136Z,103163.06
2023-02-27T05:03:22.186Z,103163.09
2023-02-27T05:05:51.220Z,103159.75
2023-02-27T05:08:43.373Z,103157.31
2023-02-27T05:11:29.937Z,103164.91
2023-02-27T05:14:08.362Z,103162.41
2023-02-27T05:16:51.572Z,103164.34
2023-02-27T05:19:20.648Z,103167.84
2023-02-27T05:21:54.507Z,103168.72
2023-02-27T05:24:37.629Z,103173.78
2023-02-27T05:27:19.171Z,103175.47
2023-02-27T05:29:51.928Z,103174.75
2023-02-27T05:32:27.732Z,103179.84
2023-02-27T05:35:25.523Z,103176.56
2023-02-27T05:38:01.321Z,103179.94
2023-02-27T05:40:46.792Z,103178.25
2023-02-27T05:43:23.813Z,103174.94
2023-02-27T05:45:56.508Z,103173.22
2023-02-27T05:48:33.044Z,103175.81
2023-02-27T05:51:03.829Z,103183.31
2023-02-27T05:53:35.584Z,103175.88
2023-02-27T05:56:06.470Z,103183.47
2023-02-27T05:58:39.036Z,103193.47
2023-02-27T06:01:10.780Z,103190.09
2023-02-27T06:03:42.537Z,103183.41
2023-02-27T06:06:16.334Z,103178.47
2023-02-27T06:08:43.588Z,103191.94
2023-02-27T06:11:13.342Z,103186.13
2023-02-27T06:13:41.943Z,103194.56
2023-02-27T06:16:11.109Z,103198.72
2023-02-27T06:18:42.443Z,103213.72
2023-02-27T06:21:14.740Z,103216.19
2023-02-27T06:23:46.067Z,103220.44
2023-02-27T06:26:14.242Z,103226.31
2023-02-27T06:28:53.370Z,103234.75
2023-02-27T06:31:24.651Z,103239.78
2023-02-27T06:33:51.197Z,103241.38
2023-02-27T06:36:19.938Z,103237.09
2023-02-27T06:38:48.937Z,103244.53
2023-02-27T06:41:18.308Z,103238.69
2023-02-27T06:43:44.821Z,103241.91
2023-02-27T06:46:11.374Z,103241.91
2023-02-27T06:48:38.057Z,103245.41
2023-02-27T06:51:04.948Z,103241.16
2023-02-27T06:53:34.782Z,103245.19
2023-02-27T06:56:03.615Z,103248.47
2023-02-27T06:58:32.429Z,103248.34
2023-02-27T07:01:01.436Z,103249.03
2023-02-27T07:03:28.119Z,103256.38
2023-02-27T07:05:56.982Z,103251.22
2023-02-27T07:08:25.635Z,103252.66
2023-02-27T07:10:52.094Z,103254.78
2023-02-27T07:13:21.134Z,103257.69
2023-02-27T07:15:47.689Z,103257.34
2023-02-27T07:18:14.272Z,103249.41
2023-02-27T07:20:41.254Z,103253.72
2023-02-27T07:23:10.654Z,103258.50
2023-02-27T07:25:37.195Z,103262.41
2023-02-27T07:28:05.075Z,103259.81
2023-02-27T07:30:31.645Z,103260.31
2023-02-27T07:33:00.541Z,103263.19
2023-02-27T07:35:27.620Z,103249.97
2023-02-27T07:37:54.168Z,103248.75
2023-02-27T07:40:20.964Z,103256.59
2023-02-27T07:42:49.731Z,103252.66
2023-02-27T07:45:23.456Z,103250.88
2023-02-27T07:47:54.480Z,103255.25
2023-02-27T07:50:23.707Z,103257.03
2023-02-27T07:52:52.037Z,103261.81
2023-02-27T07:55:20.955Z,103258.22
2023-02-27T07:57:49.852Z,103266.63
2023-02-27T08:00:17.019Z,103268.00
2023-02-27T08:02:45.686Z,103268.50
2023-02-27T08:05:15.116Z,103266.81
2023-02-27T08:07:44.751Z,103274.13
2023-02-27T08:10:16.146Z,103270.91
2023-02-27T08:12:46.083Z,103272.78
2023-02-27T08:15:12.838Z,103286.53
2023-02-27T08:17:41.544Z,103270.91
2023-02-27T08:20:11.296Z,103275.38
2023-02-27T08:22:42.627Z,103277.50
2023-02-27T08:25:14.206Z,103272.94
2023-02-27T08:27:40.732Z,103281.81
2023-02-27T08:30:10.143Z,103281.19
2023-02-27T08:32:37.285Z,103284.63
2023-02-27T08:35:06.088Z,103281.56
2023-02-27T08:37:32.575Z,103275.75
2023-02-27T08:40:00.564Z,103293.63
2023-02-27T08:42:30.497Z,103294.94
2023-02-27T08:45:01.922Z,103296.91
2023-02-27T08:47:28.446Z,103296.25
2023-02-27T08:49:58.419Z,103299.66
2023-02-27T08:52:28.367Z,103297.16
2023-02-27T08:54:54.878Z,103299.03
2023-02-27T08:57:21.982Z,103302.09
2023-02-27T08:59:51.097Z,103301.75
2023-02-27T09:02:23.502Z,103305.59
2023-02-27T09:04:55.141Z,103307.16
2023-02-27T09:07:21.716Z,103303.69
2023-02-27T09:09:50.027Z,103313.16
2023-02-27T09:12:16.915Z,103311.34
2023-02-27T09:14:45.890Z,103311.03
2023-02-27T09:17:14.862Z,103314.75
2023-02-27T09:19:46.159Z,103301.31
2023-02-27T09:22:14.299Z,103311.44
2023-02-27T09:24:40.760Z,103309.53
2023-02-27T09:27:09.695Z,103305.91
2023-02-27T09:29:36.467Z,103316.16
2023-02-27T09:32:05.361Z,103310.72
2023-02-27T09:34:34.526Z,103306.19
2023-02-27T09:37:01.863Z,103308.16
2023-02-27T09:39:33.178Z,103313.19
2023-02-27T09:42:04.872Z,103314.88
2023-02-27T09:44:47.612Z,103314.09
2023-02-27T09:47:19.318Z,103305.31
2023-02-27T09:50:06.916Z,103302.56
2023-02-27T09:52:40.178Z,103308.06
2023-02-27T09:55:15.364Z,103315.03
2023-02-27T09:57:49.825Z,103318.66
2023-02-27T10:00:38.561Z,103313.81
2023-02-27T10:03:21.456Z,103319.34
2023-02-27T10:06:07.460Z,103319.53
2023-02-27T10:08:52.259Z,103315.53
2023-02-27T10:11:32.826Z,103319.69
2023-02-27T10:14:13.438Z,103325.47
2023-02-27T10:16:42.480Z,103316.09
2023-02-27T10:19:23.405Z,103311.09
2023-02-27T10:21:54.302Z,103307.22
2023-02-27T10:24:32.682Z,103315.81
2023-02-27T10:27:05.794Z,103302.94
2023-02-27T10:29:39.813Z,103303.56
2023-02-27T10:32:21.644Z,103307.53
2023-02-27T10:34:58.843Z,103314.88
2023-02-27T10:37:27.479Z,103312.59
2023-02-27T10:40:00.555Z,103312.38
2023-02-27T10:42:31.998Z,103305.44
2023-02-27T10:45:03.680Z,103306.16
2023-02-27T10:47:33.286Z,103308.91
2023-02-27T10:50:03.539Z,103304.19
2023-02-27T10:52:31.096Z,103308.53
2023-02-27T10:55:22.786Z,103304.81
2023-02-27T10:57:49.686Z,103294.69
2023-02-27T11:00:45.975Z,103294.41
2023-02-27T11:03:22.700Z,103295.00
2023-02-27T11:05:57.321Z,103292.91
2023-02-27T11:08:28.096Z,103286.97
2023-02-27T11:10:59.981Z,103283.22
2023-02-27T11:13:29.327Z,103288.53
2023-02-27T11:16:12.668Z,103281.44
2023-02-27T11:18:41.529Z,103272.22
2023-02-27T11:21:24.171Z,103271.41
2023-02-27T11:23:56.884Z,103262.00
2023-02-27T11:26:59.124Z,103266.31
2023-02-27T11:29:26.436Z,103261.97
2023-02-27T11:31:53.010Z,103256.56
2023-02-27T11:34:31.425Z,103252.31
2023-02-27T11:37:07.315Z,103244.41
2023-02-27T11:39:47.723Z,103239.59
2023-02-27T11:42:26.817Z,103242.94
2023-02-27T11:45:00.385Z,103238.38
2023-02-27T11:47:44.129Z,103229.31
2023-02-27T11:50:10.694Z,103232.09
2023-02-27T11:52:50.709Z,103233.56
2023-02-27T11:55:25.762Z,103237.22
2023-02-27T11:58:04.683Z,103238.16
2023-02-27T12:00:39.132Z,103227.22
2023-02-27T12:03:27.106Z,103223.41
2023-02-27T12:05:59.474Z,103223.94
2023-02-27T12:08:44.134Z,103215.63
2023-02-27T12:11:22.166Z,103201.78
2023-02-27T12:13:59.144Z,103212.28
2023-02-27T12:16:34.776Z,103216.25
2023-02-27T12:19:19.249Z,103218.06
2023-02-27T12:21:56.855Z,103212.84
2023-02-27T12:24:55.900Z,103218.84
2023-02-27T12:27:29.320Z,103218.53
2023-02-27T12:30:07.764Z,103224.38
2023-02-27T12:33:03.747Z,103210.56
2023-02-27T12:35:33.353Z,103222.13
2023-02-27T12:38:02.850Z,103206.06
2023-02-27T12:40:50.910Z,103201.31
2023-02-27T12:43:23.436Z,103190.06
2023-02-27T12:46:05.150Z,103199.25
2023-02-27T12:49:17.162Z,103207.25
2023-02-27T12:51:51.286Z,103206.56
2023-02-27T12:54:46.636Z,103200.53
2023-02-27T12:57:41.138Z,103207.88
2023-02-27T13:00:11.265Z,103209.91
2023-02-27T13:02:59.327Z,103214.38
2023-02-27T13:05:37.378Z,103214.91
2023-02-27T13:08:25.481Z,103214.97
2023-02-27T13:10:59.004Z,103216.16
2023-02-27T13:13:39.624Z,103210.22
2023-02-27T13:16:12.673Z,103208.31
2023-02-27T13:18:54.115Z,103204.59
2023-02-27T13:21:51.568Z,103193.34
2023-02-27T13:24:25.822Z,103190.91
2023-02-27T13:27:33.464Z,103196.59
2023-02-27T13:30:02.953Z,103191.41
2023-02-27T13:32:51.149Z,103183.03
2023-02-27T13:35:41.763Z,103193.44
2023-02-27T13:38:30.101Z,103191.78
2023-02-27T13:41:29.666Z,103181.53
2023-02-27T13:43:58.588Z,103184.28
2023-02-27T13:46:37.045Z,103188.66
2023-02-27T13:49:10.725Z,103195.44
2023-02-27T13:51:46.817Z,103184.56
2023-02-27T13:54:13.290Z,103185.88
2023-02-27T13:56:45.746Z,103190.50
2023-02-27T13:59:23.735Z,103189.22
2023-02-27T14:02:02.123Z,103186.53
2023-02-27T14:04:32.979Z,103185.88
2023-02-27T14:07:09.129Z,103192.06
2023-02-27T14:09:39.848Z,103181.25
2023-02-27T14:12:42.774Z,103179.59
2023-02-27T14:15:24.929Z,103181.34
2023-02-27T14:18:14.168Z,103183.44
2023-02-27T14:20:52.342Z,103172.88
2023-02-27T14:23:25.006Z,103184.81
2023-02-27T14:25:56.760Z,103182.72
2023-02-27T14:28:44.825Z,103179.44
2023-02-27T14:31:32.293Z,103183.53
2023-02-27T14:34:05.330Z,103164.53
2023-02-27T14:36:42.708Z,103169.72
2023-02-27T14:39:29.688Z,103177.88
2023-02-27T14:42:41.791Z,103173.09
2023-02-27T14:45:20.727Z,103190.00
2023-02-27T14:47:51.967Z,103181.72
2023-02-27T14:50:29.091Z,103190.97
2023-02-27T14:52:55.735Z,103186.63
2023-02-27T14:55:30.194Z,103186.47
2023-02-27T14:58:19.748Z,103179.66
2023-02-27T15:00:50.677Z,103183.09
2023-02-27T15:03:18.869Z,103178.56
2023-02-27T15:05:47.607Z,103172.25
2023-02-27T15:08:24.036Z,103175.75
2023-02-27T15:10:55.137Z,103166.88
2023-02-27T15:13:32.138Z,103180.66
2023-02-27T15:16:23.518Z,103182.59
2023-02-27T15:18:53.079Z,103176.47
2023-02-27T15:21:22.601Z,103176.59
2023-02-27T15:23:55.133Z,103178.31
2023-02-27T15:26:21.976Z,103181.44
2023-02-27T15:28:51.036Z,103181.53
2023-02-27T15:31:24.054Z,103188.44
2023-02-27T15:33:53.941Z,103191.09
2023-02-27T15:36:25.953Z,103183.03
2023-02-27T15:39:18.230Z,103181.78
2023-02-27T15:41:49.480Z,103181.22
2023-02-27T15:44:18.663Z,103194.88
2023-02-27T15:46:46.719Z,103187.81
2023-02-27T15:49:20.746Z,103188.56
2023-02-27T15:52:05.531Z,103189.03
2023-02-27T15:54:33.963Z,103193.78
2023-02-27T15:57:04.857Z,103190.81
2023-02-27T15:59:38.232Z,103192.06
2023-02-27T16:02:13.929Z,103195.81
2023-02-27T16:04:40.501Z,103181.53
2023-02-27T16:07:15.669Z,103181.78
2023-02-27T16:09:46.637Z,103182.78
2023-02-27T16:12:27.809Z,103179.50
2023-02-27T16:15:23.339Z,103183.88
2023-02-27T16:17:58.090Z,103182.41
2023-02-27T16:20:39.538Z,103188.44
2023-02-27T16:23:28.186Z,103186.88
2023-02-27T16:26:11.099Z,103184.53
2023-02-27T16:29:02.585Z,103189.09
2023-02-27T16:31:33.699Z,103197.72
2023-02-27T16:34:15.770Z,103188.63
2023-02-27T16:36:54.158Z,103191.63
2023-02-27T16:39:20.670Z,103187.00
2023-02-27T16:41:51.864Z,103193.06
2023-02-27T16:44:18.429Z,103195.81
2023-02-27T16:46:50.777Z,103192.72
2023-02-27T16:49:26.672Z,103195.38
2023-02-27T16:51:55.984Z,103192.31
2023-02-27T16:54:25.875Z,103193.59
2023-02-27T16:56:54.778Z,103191.50
2023-02-27T16:59:28.886Z,103192.69
2023-02-27T17:01:56.853Z,103207.22
2023-02-27T17:04:26.435Z,103198.94
2023-02-27T17:06:54.583Z,103204.66
2023-02-27T17:09:24.216Z,103205.00
2023-02-27T17:11:50.688Z,103200.22
2023-02-27T17:14:17.299Z,103202.28
2023-02-27T17:16:44.481Z,103199.25
2023-02-27T17:19:11.036Z,103210.78
2023-02-27T17:21:37.875Z,103213.59
2023-02-27T17:24:07.340Z,103213.03
2023-02-27T17:26:37.373Z,103226.16
2023-02-27T17:29:06.312Z,103219.91
2023-02-27T17:31:35.491Z,103216.47
2023-02-27T17:34:08.794Z,103217.69
2023-02-27T17:36:36.186Z,103214.66
2023-02-27T17:39:07.909Z,103221.69
2023-02-27T17:41:36.681Z,103225.47
2023-02-27T17:44:03.499Z,103223.41
2023-02-27T17:46:33.210Z,103232.25
2023-02-27T17:49:00.610Z,103241.84
2023-02-27T17:51:31.546Z,103237.91
2023-02-27T17:54:01.692Z,103239.94
2023-02-27T17:56:28.864Z,103239.34
2023-02-27T17:59:00.150Z,103238.81
2023-02-27T18:01:29.241Z,103238.22
2023-02-27T18:03:56.198Z,103245.03
2023-02-27T18:06:24.282Z,103236.66
2023-02-27T18:08:51.091Z,103243.00
2023-02-27T18:11:19.865Z,103244.13
2023-02-27T18:13:47.151Z,103239.31
2023-02-27T18:16:14.567Z,103242.97
2023-02-27T18:18:42.740Z,103253.66
2023-02-27T18:21:15.603Z,103247.16
2023-02-27T18:23:43.661Z,103244.53
2023-02-27T18:26:28.452Z,103250.50
2023-02-27T18:29:01.959Z,103252.06
2023-02-27T18:31:32.784Z,103256.47
2023-02-27T18:34:00.708Z,103254.22
2023-02-27T18:36:28.449Z,103256.09
2023-02-27T18:38:55.194Z,103253.78
2023-02-27T18:41:21.761Z,103255.63
2023-02-27T18:43:48.331Z,103258.31
2023-02-27T18:46:15.029Z,103257.56
2023-02-27T18:48:43.806Z,103261.88
2023-02-27T18:51:14.331Z,103276.44
2023-02-27T18:53:47.972Z,103278.22
2023-02-27T18:56:19.395Z,103281.72
2023-02-27T18:58:49.028Z,103274.38
2023-02-27T19:01:20.518Z,103277.09
2023-02-27T19:03:47.092Z,103271.94
2023-02-27T19:06:13.750Z,103284.53
2023-02-27T19:08:40.284Z,103283.94
2023-02-27T19:11:06.831Z,103277.28
2023-02-27T19:13:33.312Z,103280.78
2023-02-27T19:16:04.719Z,103276.31
2023-02-27T19:18:33.788Z,103277.09
2023-02-27T19:21:05.802Z,103282.16
2023-02-27T19:23:32.341Z,103285.53
2023-02-27T19:26:02.607Z,103287.00
2023-02-27T19:28:29.138Z,103291.06
2023-02-27T19:30:55.817Z,103296.94
2023-02-27T19:33:27.491Z,103298.47
2023-02-27T19:35:54.048Z,103284.81
2023-02-27T19:38:20.704Z,103287.41
2023-02-27T19:40:54.337Z,103289.06
2023-02-27T19:43:21.234Z,103285.03
2023-02-27T19:45:50.151Z,103292.97
2023-02-27T19:48:19.675Z,103294.97
2023-02-27T19:50:46.554Z,103289.28
2023-02-27T19:53:15.288Z,103298.69
2023-02-27T19:55:41.960Z,103297.19
2023-02-27T19:58:08.442Z,103296.34
2023-02-27T20:00:37.411Z,103297.31
2023-02-27T20:03:08.783Z,103305.00
2023-02-27T20:05:39.065Z,103308.34
2023-02-27T20:08:06.861Z,103306.00
2023-02-27T20:10:33.470Z,103313.00
2023-02-27T20:12:59.971Z,103314.09
2023-02-27T20:15:31.248Z,103308.34
2023-02-27T20:17:57.707Z,103312.72
2023-02-27T20:20:24.314Z,103304.38
2023-02-27T20:22:52.456Z,103303.75
2023-02-27T20:25:18.953Z,103305.72
2023-02-27T20:27:47.663Z,103313.25
2023-02-27T20:30:16.551Z,103314.28
2023-02-27T20:32:46.127Z,103311.09
2023-02-27T20:35:12.694Z,103315.50
2023-02-27T20:37:41.983Z,103311.53
2023-02-27T20:40:14.130Z,103305.75
2023-02-27T20:42:42.080Z,103306.63
2023-02-27T20:45:08.775Z,103299.22
2023-02-27T20:47:35.234Z,103300.38
2023-02-27T20:50:02.192Z,103303.09
2023-02-27T20:52:30.775Z,103296.75
2023-02-27T20:54:57.303Z,103302.88
2023-02-27T20:57:24.867Z,103308.72
2023-02-27T20:59:54.257Z,103310.25
2023-02-27T21:02:22.973Z,103310.31
2023-02-27T21:04:50.742Z,103314.66
2023-02-27T21:07:24.202Z,103311.50
2023-02-27T21:09:50.809Z,103307.56
2023-02-27T21:12:17.821Z,103299.31
2023-02-27T21:14:45.197Z,103302.69
2023-02-27T21:17:16.246Z,103303.56
2023-02-27T21:19:45.087Z,103304.44
2023-02-27T21:22:14.294Z,103312.19
2023-02-27T21:24:43.224Z,103304.66
2023-02-27T21:27:09.777Z,103305.63
2023-02-27T21:29:38.606Z,103312.41
2023-02-27T21:32:08.363Z,103315.72
2023-02-27T21:34:35.061Z,103310.72
2023-02-27T21:37:09.512Z,103312.53
2023-02-27T21:39:41.164Z,103314.38
2023-02-27T21:42:07.611Z,103313.59
2023-02-27T21:44:34.212Z,103314.56
2023-02-27T21:47:09.838Z,103317.13
2023-02-27T21:49:36.866Z,103314.00
2023-02-27T21:52:06.783Z,103331.03
2023-02-27T21:54:33.320Z,103321.19
2023-02-27T21:57:03.224Z,103323.66
2023-02-27T21:59:32.336Z,103319.66
2023-02-27T22:02:01.662Z,103327.31
2023-02-27T22:04:29.384Z,103329.09
2023-02-27T22:06:55.864Z,103330.84
2023-02-27T22:09:25.341Z,103326.56
2023-02-27T22:11:56.776Z,103330.00
2023-02-27T22:14:26.216Z,103322.59
2023-02-27T22:16:52.751Z,103324.28
2023-02-27T22:19:20.188Z,103326.00
2023-02-27T22:21:49.195Z,103323.63
2023-02-27T22:24:18.397Z,103317.00
2023-02-27T22:26:45.775Z,103311.13
2023-02-27T22:29:14.553Z,103312.91
2023-02-27T22:31:41.123Z,103311.34
2023-02-27T22:34:12.514Z,103314.94
2023-02-27T22:36:41.308Z,103318.34
2023-02-27T22:39:08.595Z,103324.22
2023-02-27T22:41:39.999Z,103324.25
2023-02-27T22:44:10.251Z,103333.69
2023-02-27T22:46:42.672Z,103333.69
2023-02-27T22:49:23.634Z,103333.84
2023-02-27T22:51:51.934Z,103333.19
2023-02-27T22:54:19.454Z,103340.84
2023-02-27T22:56:49.150Z,103334.88
2023-02-27T22:59:16.723Z,103335.72
2023-02-27T23:01:43.224Z,103334.16
2023-02-27T23:04:16.949Z,103330.97
2023-02-27T23:06:46.535Z,103331.84
2023-02-27T23:09:18.937Z,103341.22
2023-02-27T23:11:48.137Z,103336.16
2023-02-27T23:14:14.946Z,103335.38
2023-02-27T23:16:46.815Z,103336.25
2023-02-27T23:19:18.426Z,103340.53
2023-02-27T23:21:45.408Z,103334.69
2023-02-27T23:24:17.376Z,103342.28
2023-02-27T23:26:49.597Z,103344.78
2023-02-27T23:29:16.896Z,103343.06
2023-02-27T23:31:46.239Z,103342.19
2023-02-27T23:34:12.923Z,103348.00
2023-02-27T23:36:42.684Z,103352.31
2023-02-27T23:39:11.753Z,103344.66
2023-02-27T23:41:38.207Z,103342.13
2023-02-27T23:44:07.009Z,103348.84
2023-02-27T23:46:33.475Z,103353.88
2023-02-27T23:49:01.349Z,103351.13
2023-02-27T23:51:30.712Z,103352.66
2023-02-27T23:53:57.978Z,103351.66
2023-02-27T23:56:31.709Z,103349.91
2023-02-27T23:59:06.612Z,103348.31
